createdAt,value
2023-05-05T00:00:53.521Z,81.63
2023-05-05T00:01:53.613Z,81.63
2023-05-05T00:02:53.501Z,81.63
2023-05-05T00:03:53.522Z,81.63
2023-05-05T00:04:53.491Z,81.84
2023-05-05T00:05:53.467Z,81.73
2023-05-05T00:06:53.457Z,81.63
2023-05-05T00:07:53.438Z,81.52
2023-05-05T00:08:53.431Z,81.63
2023-05-05T00:09:53.428Z,81.73
2023-05-05T00:10:53.414Z,81.94
2023-05-05T00:11:53.421Z,82.04
2023-05-05T00:12:53.427Z,82.18
2023-05-05T00:13:53.369Z,82.04
2023-05-05T00:14:53.389Z,82.18
2023-05-05T00:15:53.440Z,82.18
2023-05-05T00:16:53.345Z,82.18
2023-05-05T00:17:53.436Z,81.77
2023-05-05T00:18:53.315Z,81.87
2023-05-05T00:19:53.327Z,81.57
2023-05-05T00:20:53.298Z,81.67
2023-05-05T00:21:53.291Z,81.22
2023-05-05T00:22:54.270Z,81.15
2023-05-05T00:23:53.257Z,80.91
2023-05-05T00:24:53.307Z,81.26
2023-05-05T00:25:53.245Z,81.26
2023-05-05T00:26:53.251Z,80.54
2023-05-05T00:27:53.216Z,80.95
2023-05-05T00:28:53.205Z,80.54
2023-05-05T00:29:53.213Z,80.54
2023-05-05T00:30:53.244Z,81.26
2023-05-05T00:31:53.190Z,81.36
2023-05-05T00:32:53.202Z,81.05
2023-05-05T00:33:53.161Z,80.95
2023-05-05T00:34:53.148Z,81.26
2023-05-05T00:35:53.126Z,80.85
2023-05-05T00:36:53.129Z,80.64
2023-05-05T00:37:53.099Z,81.05
2023-05-05T00:38:53.098Z,80.54
2023-05-05T00:39:53.091Z,80.40
2023-05-05T00:40:53.072Z,80.54
2023-05-05T00:41:53.086Z,80.74
2023-05-05T00:42:53.042Z,80.64
2023-05-05T00:43:53.039Z,80.85
2023-05-05T00:44:53.053Z,79.93
2023-05-05T00:45:53.019Z,79.93
2023-05-05T00:46:53.014Z,80.03
2023-05-05T00:47:53.040Z,80.64
2023-05-05T00:48:53.046Z,80.74
2023-05-05T00:49:52.971Z,81.36
2023-05-05T00:50:52.975Z,81.46
2023-05-05T00:51:53.947Z,81.46
2023-05-05T00:52:52.951Z,81.15
2023-05-05T00:53:52.930Z,81.15
2023-05-05T00:54:52.938Z,80.95
2023-05-05T00:55:52.904Z,81.26
2023-05-05T00:56:52.890Z,81.05
2023-05-05T00:57:52.923Z,81.67
2023-05-05T00:58:52.885Z,81.46
2023-05-05T00:59:52.854Z,81.26
2023-05-05T01:00:52.870Z,80.95
2023-05-05T01:01:52.896Z,81.67
2023-05-05T01:02:52.948Z,81.05
2023-05-05T01:03:52.993Z,81.67
2023-05-05T01:04:52.800Z,81.15
2023-05-05T01:05:52.788Z,81.57
2023-05-05T01:06:53.768Z,81.46
2023-05-05T01:07:52.780Z,81.26
2023-05-05T01:08:52.773Z,81.40
2023-05-05T01:10:15.596Z,81.50
2023-05-05T01:10:54.730Z,80.99
2023-05-05T01:11:52.725Z,81.60
2023-05-05T01:12:52.863Z,81.40
2023-05-05T01:13:52.703Z,81.50
2023-05-05T01:14:52.695Z,82.05
2023-05-05T01:15:52.737Z,82.22
2023-05-05T01:16:52.694Z,82.32
2023-05-05T01:17:52.850Z,82.01
2023-05-05T01:18:52.659Z,82.15
2023-05-05T01:19:52.671Z,82.36
2023-05-05T01:20:52.636Z,82.67
2023-05-05T01:21:52.610Z,82.77
2023-05-05T01:22:52.596Z,82.77
2023-05-05T01:23:52.615Z,83.28
2023-05-05T01:24:52.585Z,83.07
2023-05-05T01:25:52.583Z,82.93
2023-05-05T01:26:52.595Z,82.87
2023-05-05T01:27:52.557Z,82.83
2023-05-05T01:28:52.531Z,82.53
2023-05-05T01:29:52.531Z,82.32
2023-05-05T01:30:52.508Z,82.12
2023-05-05T01:31:52.519Z,82.22
2023-05-05T01:32:52.500Z,82.63
2023-05-05T01:33:52.482Z,82.01
2023-05-05T01:34:52.467Z,82.12
2023-05-05T01:35:52.461Z,81.60
2023-05-05T01:36:52.470Z,81.91
2023-05-05T01:37:52.420Z,82.12
2023-05-05T01:38:52.411Z,82.42
2023-05-05T01:39:52.414Z,82.42
2023-05-05T01:40:52.378Z,82.56
2023-05-05T01:41:52.376Z,82.67
2023-05-05T01:42:52.376Z,82.87
2023-05-05T01:43:52.360Z,83.18
2023-05-05T01:44:52.352Z,82.67
2023-05-05T01:45:52.349Z,82.97
2023-05-05T01:46:52.321Z,83.28
2023-05-05T01:47:52.390Z,83.25
2023-05-05T01:48:53.316Z,83.39
2023-05-05T01:49:52.293Z,83.14
2023-05-05T01:50:52.282Z,82.87
2023-05-05T01:51:52.276Z,82.97
2023-05-05T01:52:52.278Z,83.28
2023-05-05T01:53:52.243Z,83.04
2023-05-05T01:54:52.237Z,82.83
2023-05-05T01:55:52.250Z,82.32
2023-05-05T01:56:52.200Z,82.42
2023-05-05T01:57:52.193Z,82.32
2023-05-05T01:58:52.192Z,82.01
2023-05-05T01:59:52.198Z,82.32
2023-05-05T02:00:52.155Z,82.32
2023-05-05T02:01:52.183Z,82.63
2023-05-05T02:02:52.237Z,82.83
2023-05-05T02:03:52.147Z,83.14
2023-05-05T02:04:52.162Z,83.25
2023-05-05T02:05:52.105Z,83.25
2023-05-05T02:06:52.101Z,83.28
2023-05-05T02:07:52.112Z,83.45
2023-05-05T02:08:52.085Z,83.45
2023-05-05T02:09:52.078Z,83.34
2023-05-05T02:10:52.064Z,83.55
2023-05-05T02:11:52.057Z,83.39
2023-05-05T02:12:52.122Z,83.76
2023-05-05T02:13:52.087Z,83.80
2023-05-05T02:14:52.017Z,83.59
2023-05-05T02:15:52.085Z,83.69
2023-05-05T02:16:52.007Z,83.49
2023-05-05T02:17:52.047Z,83.28
2023-05-05T02:18:51.985Z,83.59
2023-05-05T02:19:51.972Z,83.65
2023-05-05T02:20:51.942Z,83.86
2023-05-05T02:21:51.955Z,83.55
2023-05-05T02:22:51.973Z,83.55
2023-05-05T02:23:52.127Z,83.45
2023-05-05T02:24:51.903Z,83.34
2023-05-05T02:25:51.936Z,83.31
2023-05-05T02:26:51.916Z,83.31
2023-05-05T02:27:51.882Z,83.31
2023-05-05T02:28:51.888Z,82.90
2023-05-05T02:29:51.865Z,83.00
2023-05-05T02:30:51.854Z,82.86
2023-05-05T02:31:51.910Z,82.55
2023-05-05T02:32:51.899Z,82.39
2023-05-05T02:33:51.818Z,82.49
2023-05-05T02:34:51.802Z,82.35
2023-05-05T02:35:51.787Z,82.35
2023-05-05T02:36:51.781Z,82.24
2023-05-05T02:37:51.798Z,82.35
2023-05-05T02:38:51.762Z,82.49
2023-05-05T02:39:51.731Z,82.24
2023-05-05T02:40:51.744Z,82.49
2023-05-05T02:41:51.712Z,82.49
2023-05-05T02:42:51.803Z,82.24
2023-05-05T02:43:51.742Z,82.39
2023-05-05T02:44:51.683Z,82.24
2023-05-05T02:45:51.669Z,82.24
2023-05-05T02:46:51.726Z,82.35
2023-05-05T02:47:51.707Z,82.35
2023-05-05T02:48:51.660Z,82.14
2023-05-05T02:49:51.643Z,81.94
2023-05-05T02:50:51.602Z,81.94
2023-05-05T02:51:52.621Z,81.63
2023-05-05T02:52:51.620Z,81.43
2023-05-05T02:53:51.587Z,81.12
2023-05-05T02:54:51.593Z,80.57
2023-05-05T02:55:51.575Z,81.08
2023-05-05T02:56:51.568Z,80.81
2023-05-05T02:57:51.566Z,80.46
2023-05-05T02:58:51.573Z,80.67
2023-05-05T02:59:51.524Z,80.40
2023-05-05T03:00:51.492Z,79.89
2023-05-05T03:01:51.562Z,80.60
2023-05-05T03:02:51.605Z,80.71
2023-05-05T03:03:51.602Z,81.84
2023-05-05T03:04:51.465Z,82.24
2023-05-05T03:05:51.449Z,81.94
2023-05-05T03:06:51.421Z,81.94
2023-05-05T03:07:52.451Z,82.04
2023-05-05T03:08:51.423Z,82.39
2023-05-05T03:09:51.403Z,82.35
2023-05-05T03:10:51.398Z,82.08
2023-05-05T03:11:51.386Z,81.73
2023-05-05T03:12:51.410Z,81.12
2023-05-05T03:13:51.391Z,81.15
2023-05-05T03:14:51.334Z,80.91
2023-05-05T03:15:51.365Z,81.22
2023-05-05T03:16:51.336Z,80.95
2023-05-05T03:17:51.361Z,81.46
2023-05-05T03:18:51.326Z,81.77
2023-05-05T03:19:51.285Z,81.57
2023-05-05T03:20:51.280Z,81.98
2023-05-05T03:21:51.277Z,82.28
2023-05-05T03:22:51.259Z,82.49
2023-05-05T03:23:51.259Z,82.39
2023-05-05T03:24:51.248Z,82.18
2023-05-05T03:25:51.216Z,82.01
2023-05-05T03:26:51.224Z,82.90
2023-05-05T03:27:51.213Z,82.53
2023-05-05T03:28:51.199Z,83.04
2023-05-05T03:29:51.180Z,82.63
2023-05-05T03:30:51.153Z,82.42
2023-05-05T03:31:51.199Z,82.73
2023-05-05T03:32:51.189Z,82.83
2023-05-05T03:33:51.149Z,82.83
2023-05-05T03:34:51.105Z,83.04
2023-05-05T03:35:51.109Z,83.07
2023-05-05T03:36:51.094Z,82.67
2023-05-05T03:37:51.090Z,83.25
2023-05-05T03:38:51.106Z,83.90
2023-05-05T03:39:51.101Z,84.00
2023-05-05T03:40:51.063Z,83.90
2023-05-05T03:41:51.036Z,84.10
2023-05-05T03:42:51.046Z,84.41
2023-05-05T03:43:51.025Z,84.31
2023-05-05T03:44:51.066Z,85.23
2023-05-05T03:45:51.047Z,85.23
2023-05-05T03:46:50.989Z,85.44
2023-05-05T03:47:51.013Z,85.13
2023-05-05T03:48:51.004Z,85.13
2023-05-05T03:49:50.942Z,85.13
2023-05-05T03:50:50.964Z,84.61
2023-05-05T03:51:50.931Z,84.52
2023-05-05T03:52:50.926Z,85.17
2023-05-05T03:53:50.907Z,85.78
2023-05-05T03:54:50.901Z,85.27
2023-05-05T03:55:50.906Z,85.17
2023-05-05T03:56:50.879Z,85.06
2023-05-05T03:57:50.864Z,84.66
2023-05-05T03:58:50.873Z,85.27
2023-05-05T03:59:50.868Z,85.89
2023-05-05T04:00:50.840Z,85.85
2023-05-05T04:01:50.829Z,84.92
2023-05-05T04:02:50.873Z,85.13
2023-05-05T04:03:50.858Z,85.99
2023-05-05T04:04:50.788Z,85.54
2023-05-05T04:05:50.786Z,85.54
2023-05-05T04:06:50.757Z,85.64
2023-05-05T04:07:50.780Z,85.95
2023-05-05T04:08:50.747Z,85.30
2023-05-05T04:09:50.729Z,85.74
2023-05-05T04:10:50.735Z,85.80
2023-05-05T04:11:50.708Z,85.64
2023-05-05T04:12:50.717Z,84.61
2023-05-05T04:13:50.692Z,84.61
2023-05-05T04:14:50.682Z,84.10
2023-05-05T04:15:50.663Z,83.90
2023-05-05T04:16:50.681Z,83.94
2023-05-05T04:17:50.687Z,84.76
2023-05-05T04:18:50.644Z,84.66
2023-05-05T04:19:50.626Z,84.55
2023-05-05T04:20:51.621Z,84.86
2023-05-05T04:21:50.620Z,84.66
2023-05-05T04:22:52.619Z,85.23
2023-05-05T04:23:51.588Z,85.17
2023-05-05T04:24:50.566Z,85.99
2023-05-05T04:25:50.584Z,85.68
2023-05-05T04:26:50.538Z,85.58
2023-05-05T04:27:50.545Z,85.33
2023-05-05T04:28:50.537Z,84.31
2023-05-05T04:29:50.526Z,84.52
2023-05-05T04:30:50.507Z,84.82
2023-05-05T04:31:50.558Z,84.72
2023-05-05T04:32:50.502Z,84.52
2023-05-05T04:33:50.466Z,84.41
2023-05-05T04:34:50.482Z,85.03
2023-05-05T04:35:50.448Z,84.78
2023-05-05T04:36:50.459Z,84.31
2023-05-05T04:37:50.430Z,84.58
2023-05-05T04:38:50.445Z,84.27
2023-05-05T04:39:50.422Z,84.06
2023-05-05T04:40:50.412Z,83.86
2023-05-05T04:41:50.407Z,83.61
2023-05-05T04:42:50.403Z,83.51
2023-05-05T04:43:50.362Z,83.41
2023-05-05T04:44:50.365Z,83.61
2023-05-05T04:45:50.336Z,83.47
2023-05-05T04:46:50.396Z,83.82
2023-05-05T04:47:50.366Z,84.23
2023-05-05T04:48:50.304Z,85.46
2023-05-05T04:49:50.296Z,84.74
2023-05-05T04:50:50.276Z,84.50
2023-05-05T04:51:50.262Z,84.23
2023-05-05T04:52:52.451Z,83.82
2023-05-05T04:53:50.255Z,83.88
2023-05-05T04:54:50.234Z,83.88
2023-05-05T04:55:50.226Z,83.27
2023-05-05T04:56:50.240Z,82.55
2023-05-05T04:57:50.210Z,82.10
2023-05-05T04:58:50.230Z,82.10
2023-05-05T04:59:50.196Z,81.70
2023-05-05T05:00:50.156Z,81.35
2023-05-05T05:01:50.186Z,81.15
2023-05-05T05:02:50.248Z,80.49
2023-05-05T05:03:50.154Z,80.29
2023-05-05T05:04:50.151Z,79.68
2023-05-05T05:05:50.116Z,79.53
2023-05-05T05:06:50.107Z,79.70
2023-05-05T05:07:50.088Z,79.84
2023-05-05T05:08:50.070Z,78.68
2023-05-05T05:09:50.071Z,78.23
2023-05-05T05:10:50.049Z,77.86
2023-05-05T05:11:50.074Z,77.83
2023-05-05T05:12:50.110Z,77.93
2023-05-05T05:13:50.025Z,77.72
2023-05-05T05:14:50.028Z,77.38
2023-05-05T05:15:50.014Z,77.08
2023-05-05T05:16:50.082Z,77.28
2023-05-05T05:17:50.016Z,76.32
2023-05-05T05:18:49.980Z,76.73
2023-05-05T05:19:49.951Z,76.32
2023-05-05T05:20:49.945Z,75.61
2023-05-05T05:21:49.950Z,75.61
2023-05-05T05:22:49.926Z,74.90
2023-05-05T05:23:49.901Z,75.20
2023-05-05T05:24:49.963Z,75.20
2023-05-05T05:25:49.899Z,74.79
2023-05-05T05:26:49.886Z,74.25
2023-05-05T05:27:58.524Z,73.74
2023-05-05T05:28:51.850Z,73.81
2023-05-05T05:29:49.847Z,73.23
2023-05-05T05:30:49.949Z,72.99
2023-05-05T05:31:49.842Z,73.30
2023-05-05T05:32:49.850Z,73.10
2023-05-05T05:33:49.821Z,72.65
2023-05-05T05:34:49.782Z,72.75
2023-05-05T05:35:49.791Z,72.21
2023-05-05T05:36:49.750Z,72.31
2023-05-05T05:37:49.756Z,72.34
2023-05-05T05:38:49.738Z,72.11
2023-05-05T05:39:49.739Z,71.87
2023-05-05T05:40:49.734Z,71.77
2023-05-05T05:41:49.730Z,71.64
2023-05-05T05:42:49.722Z,71.67
2023-05-05T05:43:49.705Z,70.92
2023-05-05T05:44:49.673Z,70.72
2023-05-05T05:45:49.697Z,70.68
2023-05-05T05:46:49.655Z,70.68
2023-05-05T05:47:49.691Z,70.68
2023-05-05T05:48:49.628Z,70.28
2023-05-05T05:49:49.610Z,69.67
2023-05-05T05:50:49.611Z,69.23
2023-05-05T05:51:49.600Z,68.82
2023-05-05T05:52:49.579Z,69.02
2023-05-05T05:53:49.577Z,69.09
2023-05-05T05:54:49.601Z,69.30
2023-05-05T05:55:49.553Z,68.18
2023-05-05T05:56:49.553Z,68.05
2023-05-05T05:57:49.536Z,67.57
2023-05-05T05:58:49.508Z,67.44
2023-05-05T05:59:49.507Z,67.13
2023-05-05T06:00:49.499Z,66.83
2023-05-05T06:01:49.479Z,67.64
2023-05-05T06:02:49.493Z,67.13
2023-05-05T06:03:49.599Z,66.63
2023-05-05T06:04:49.463Z,66.72
2023-05-05T06:05:49.442Z,67.13
2023-05-05T06:06:49.432Z,67.13
2023-05-05T06:07:49.415Z,66.49
2023-05-05T06:08:49.435Z,66.19
2023-05-05T06:09:49.390Z,65.58
2023-05-05T06:10:49.369Z,65.48
2023-05-05T06:11:49.381Z,65.24
2023-05-05T06:12:49.359Z,65.14
2023-05-05T06:13:49.367Z,65.11
2023-05-05T06:14:49.330Z,65.01
2023-05-05T06:15:49.372Z,64.91
2023-05-05T06:16:49.320Z,63.89
2023-05-05T06:17:49.326Z,62.98
2023-05-05T06:18:49.306Z,62.54
2023-05-05T06:19:49.280Z,63.76
2023-05-05T06:20:49.293Z,62.85
2023-05-05T06:21:49.271Z,62.14
2023-05-05T06:22:49.253Z,62.65
2023-05-05T06:23:49.228Z,62.54
2023-05-05T06:24:49.231Z,62.45
2023-05-05T06:25:49.228Z,62.54
2023-05-05T06:26:49.195Z,62.85
2023-05-05T06:27:49.190Z,62.82
2023-05-05T06:28:49.181Z,62.72
2023-05-05T06:29:49.185Z,63.23
2023-05-05T06:30:49.171Z,61.78
2023-05-05T06:31:49.238Z,62.62
2023-05-05T06:32:49.176Z,63.23
2023-05-05T06:33:49.165Z,62.82
2023-05-05T06:34:49.118Z,62.29
2023-05-05T06:35:49.108Z,62.18
2023-05-05T06:36:49.143Z,62.56
2023-05-05T06:37:49.080Z,61.55
2023-05-05T06:38:49.075Z,61.21
2023-05-05T06:39:49.100Z,61.08
2023-05-05T06:40:49.051Z,61.29
2023-05-05T06:41:49.052Z,60.96
2023-05-05T06:42:49.034Z,60.22
2023-05-05T06:43:49.019Z,60.32
2023-05-05T06:44:49.042Z,61.29
2023-05-05T06:45:49.039Z,61.46
2023-05-05T06:46:49.017Z,60.96
2023-05-05T06:47:48.984Z,60.05
2023-05-05T06:48:48.982Z,59.61
2023-05-05T06:49:49.972Z,59.58
2023-05-05T06:50:49.031Z,59.89
2023-05-05T06:51:48.954Z,58.54
2023-05-05T06:52:48.949Z,58.25
2023-05-05T06:53:48.946Z,58.22
2023-05-05T06:54:48.913Z,58.32
2023-05-05T06:55:48.892Z,59.22
2023-05-05T06:56:48.893Z,57.98
2023-05-05T06:57:48.919Z,58.19
2023-05-05T06:58:48.860Z,57.45
2023-05-05T06:59:48.848Z,57.56
2023-05-05T07:00:48.886Z,57.45
2023-05-05T07:01:48.845Z,57.56
2023-05-05T07:02:48.819Z,56.65
2023-05-05T07:04:21.561Z,55.84
2023-05-05T07:04:48.788Z,56.35
2023-05-05T07:05:48.804Z,56.77
2023-05-05T07:06:48.851Z,56.68
2023-05-05T07:07:48.754Z,57.48
2023-05-05T07:08:48.753Z,56.77
2023-05-05T07:09:48.755Z,56.40
2023-05-05T07:10:48.982Z,56.07
2023-05-05T07:11:48.740Z,56.17
2023-05-05T07:12:48.791Z,57.05
2023-05-05T07:13:48.694Z,56.04
2023-05-05T07:14:48.696Z,56.35
2023-05-05T07:15:48.693Z,57.58
2023-05-05T07:16:48.714Z,57.18
2023-05-05T07:17:48.690Z,57.68
2023-05-05T07:18:49.661Z,57.48
2023-05-05T07:19:48.657Z,57.81
2023-05-05T07:20:48.634Z,57.58
2023-05-05T07:21:48.602Z,56.98
2023-05-05T07:22:48.751Z,55.87
2023-05-05T07:23:48.633Z,57.71
2023-05-05T07:24:49.742Z,58.27
2023-05-05T07:25:48.564Z,58.07
2023-05-05T07:26:48.559Z,58.27
2023-05-05T07:27:48.576Z,57.84
2023-05-05T07:28:48.541Z,57.43
2023-05-05T07:29:48.548Z,57.01
2023-05-05T07:30:48.545Z,55.36
2023-05-05T07:31:48.556Z,54.73
2023-05-05T07:32:48.537Z,55.04
2023-05-05T07:33:48.518Z,53.90
2023-05-05T07:34:48.539Z,54.58
2023-05-05T07:35:48.452Z,53.98
2023-05-05T07:36:48.486Z,54.25
2023-05-05T07:37:48.453Z,53.02
2023-05-05T07:38:48.508Z,52.59
2023-05-05T07:39:48.443Z,53.00
2023-05-05T07:40:48.439Z,52.09
2023-05-05T07:41:48.391Z,52.77
2023-05-05T07:42:48.396Z,52.47
2023-05-05T07:43:48.420Z,52.04
2023-05-05T07:44:48.380Z,52.64
2023-05-05T07:45:48.453Z,52.42
2023-05-05T07:46:48.359Z,52.64
2023-05-05T07:47:48.393Z,53.05
2023-05-05T07:48:48.354Z,53.95
2023-05-05T07:49:48.359Z,54.33
2023-05-05T07:50:48.307Z,54.53
2023-05-05T07:51:48.288Z,53.72
2023-05-05T07:52:53.980Z,53.62
2023-05-05T07:53:50.281Z,54.13
2023-05-05T07:54:48.327Z,54.45
2023-05-05T07:55:48.225Z,54.55
2023-05-05T07:56:48.237Z,55.68
2023-05-05T07:57:48.272Z,57.32
2023-05-05T07:58:48.228Z,57.98
2023-05-05T07:59:48.213Z,58.28
2023-05-05T08:00:48.213Z,58.38
2023-05-05T08:01:48.169Z,58.88
2023-05-05T08:02:48.285Z,59.01
2023-05-05T08:03:48.372Z,60.08
2023-05-05T08:04:49.190Z,60.41
2023-05-05T08:05:49.928Z,60.58
2023-05-05T08:06:48.130Z,59.97
2023-05-05T08:07:48.158Z,59.97
2023-05-05T08:08:48.127Z,61.01
2023-05-05T08:09:48.146Z,62.25
2023-05-05T08:10:48.092Z,62.79
2023-05-05T08:11:48.063Z,64.50
2023-05-05T08:12:48.126Z,63.62
2023-05-05T08:13:48.096Z,64.10
2023-05-05T08:14:48.056Z,64.61
2023-05-05T08:15:48.048Z,63.70
2023-05-05T08:16:48.039Z,63.70
2023-05-05T08:17:48.089Z,64.47
2023-05-05T08:18:48.010Z,63.67
2023-05-05T08:19:48.020Z,62.93
2023-05-05T08:20:47.982Z,62.12
2023-05-05T08:21:47.949Z,62.32
2023-05-05T08:22:47.973Z,63.64
2023-05-05T08:23:47.977Z,62.65
2023-05-05T08:24:47.906Z,63.67
2023-05-05T08:25:47.930Z,63.56
2023-05-05T08:26:48.080Z,63.76
2023-05-05T08:27:47.892Z,63.33
2023-05-05T08:28:47.895Z,64.44
2023-05-05T08:29:47.901Z,64.58
2023-05-05T08:30:47.880Z,64.81
2023-05-05T08:31:47.879Z,64.53
2023-05-05T08:32:47.924Z,65.34
2023-05-05T08:33:47.833Z,65.95
2023-05-05T08:34:47.814Z,65.61
2023-05-05T08:35:47.828Z,65.92
2023-05-05T08:36:47.804Z,64.67
2023-05-05T08:37:47.807Z,62.63
2023-05-05T08:38:47.782Z,62.12
2023-05-05T08:39:47.798Z,61.89
2023-05-05T08:40:47.750Z,61.29
2023-05-05T08:41:47.774Z,60.85
2023-05-05T08:42:47.895Z,60.83
2023-05-05T08:43:47.710Z,59.11
2023-05-05T08:44:47.703Z,58.65
2023-05-05T08:45:47.722Z,59.16
2023-05-05T08:46:47.728Z,58.53
2023-05-05T08:47:47.748Z,57.70
2023-05-05T08:48:47.673Z,57.46
2023-05-05T08:49:47.660Z,56.84
2023-05-05T08:50:47.632Z,55.60
2023-05-05T08:51:47.655Z,55.10
2023-05-05T08:52:48.648Z,54.70
2023-05-05T08:53:47.591Z,54.60
2023-05-05T08:54:47.590Z,54.88
2023-05-05T08:55:47.604Z,54.68
2023-05-05T08:56:47.708Z,55.10
2023-05-05T08:57:48.546Z,55.51
2023-05-05T08:58:47.651Z,55.40
2023-05-05T08:59:47.567Z,56.61
2023-05-05T09:00:47.546Z,57.31
2023-05-05T09:01:48.514Z,57.44
2023-05-05T09:02:47.631Z,57.06
2023-05-05T09:03:47.531Z,58.90
2023-05-05T09:04:47.473Z,59.33
2023-05-05T09:05:47.547Z,60.44
2023-05-05T09:06:47.516Z,60.33
2023-05-05T09:07:47.555Z,60.94
2023-05-05T09:08:47.438Z,61.41
2023-05-05T09:09:47.461Z,59.60
2023-05-05T09:10:47.425Z,59.63
2023-05-05T09:11:47.401Z,59.60
2023-05-05T09:12:47.474Z,60.33
2023-05-05T09:13:47.375Z,60.33
2023-05-05T09:14:47.400Z,59.98
2023-05-05T09:15:47.400Z,57.44
2023-05-05T09:16:47.427Z,57.51
2023-05-05T09:17:47.405Z,57.28
2023-05-05T09:18:47.330Z,56.56
2023-05-05T09:19:47.372Z,55.55
2023-05-05T09:20:47.294Z,55.20
2023-05-05T09:21:47.306Z,54.82
2023-05-05T09:22:47.340Z,54.88
2023-05-05T09:23:47.257Z,54.65
2023-05-05T09:24:47.287Z,54.52
2023-05-05T09:25:47.285Z,54.00
2023-05-05T09:26:47.260Z,52.87
2023-05-05T09:27:47.260Z,52.02
2023-05-05T09:28:47.232Z,51.20
2023-05-05T09:29:47.244Z,50.57
2023-05-05T09:30:47.285Z,50.17
2023-05-05T09:31:47.172Z,49.62
2023-05-05T09:32:47.295Z,49.44
2023-05-05T09:33:47.185Z,49.67
2023-05-05T09:34:47.165Z,49.19
2023-05-05T09:35:47.126Z,49.90
2023-05-05T09:36:47.159Z,49.15
2023-05-05T09:37:47.132Z,47.83
2023-05-05T09:38:47.125Z,48.63
2023-05-05T09:39:47.187Z,49.74
2023-05-05T09:40:47.129Z,51.62
2023-05-05T09:41:47.090Z,51.82
2023-05-05T09:42:47.074Z,51.09
2023-05-05T09:43:47.084Z,50.39
2023-05-05T09:44:47.051Z,49.87
2023-05-05T09:45:47.066Z,49.42
2023-05-05T09:46:47.200Z,49.12
2023-05-05T09:47:47.210Z,51.02
2023-05-05T09:48:47.008Z,52.84
2023-05-05T09:49:47.026Z,52.87
2023-05-05T09:50:47.005Z,53.17
2023-05-05T09:51:46.968Z,55.05
2023-05-05T09:52:48.130Z,54.67
2023-05-05T09:53:46.941Z,55.67
2023-05-05T09:54:46.936Z,54.37
2023-05-05T09:55:46.959Z,54.14
2023-05-05T09:56:46.940Z,52.62
2023-05-05T09:57:46.909Z,52.80
2023-05-05T09:58:46.911Z,52.62
2023-05-05T09:59:46.909Z,52.19
2023-05-05T10:00:46.907Z,51.89
2023-05-05T10:01:47.050Z,51.77
2023-05-05T10:02:46.967Z,51.07
2023-05-05T10:03:46.870Z,50.74
2023-05-05T10:04:46.876Z,50.45
2023-05-05T10:05:46.802Z,50.84
2023-05-05T10:06:46.814Z,50.72
2023-05-05T10:07:46.827Z,50.82
2023-05-05T10:08:46.792Z,50.95
2023-05-05T10:09:46.865Z,51.84
2023-05-05T10:10:46.786Z,51.15
2023-05-05T10:11:46.749Z,52.02
2023-05-05T10:12:47.803Z,52.62
2023-05-05T10:13:46.761Z,52.09
2023-05-05T10:14:46.729Z,50.55
2023-05-05T10:15:46.762Z,49.75
2023-05-05T10:16:46.773Z,49.25
2023-05-05T10:17:57.966Z,49.33
2023-05-05T10:18:48.845Z,50.00
2023-05-05T10:19:46.691Z,50.00
2023-05-05T10:20:46.702Z,49.08
2023-05-05T10:21:46.670Z,48.07
2023-05-05T10:22:46.658Z,47.92
2023-05-05T10:23:46.666Z,47.50
2023-05-05T10:24:46.628Z,46.50
2023-05-05T10:25:46.633Z,47.80
2023-05-05T10:26:46.630Z,48.10
2023-05-05T10:27:46.593Z,46.48
2023-05-05T10:28:46.608Z,45.25
2023-05-05T10:29:46.579Z,44.90
2023-05-05T10:30:46.612Z,43.79
2023-05-05T10:31:46.586Z,43.77
2023-05-05T10:32:59.380Z,42.76
2023-05-05T10:33:48.637Z,42.14
2023-05-05T10:34:46.598Z,42.01
2023-05-05T10:35:46.515Z,41.91
2023-05-05T10:36:46.806Z,40.62
2023-05-05T10:37:46.498Z,41.14
2023-05-05T10:38:46.490Z,43.97
2023-05-05T10:39:46.493Z,45.25
2023-05-05T10:40:46.492Z,45.54
2023-05-05T10:41:46.481Z,45.00
2023-05-05T10:42:46.463Z,43.79
2023-05-05T10:43:46.431Z,43.57
2023-05-05T10:44:46.443Z,42.57
2023-05-05T10:45:46.530Z,42.54
2023-05-05T10:46:46.476Z,42.03
2023-05-05T10:47:46.490Z,41.81
2023-05-05T10:48:46.512Z,40.31
2023-05-05T10:49:46.397Z,40.56
2023-05-05T10:50:46.453Z,41.61
2023-05-05T10:51:46.405Z,41.12
2023-05-05T10:52:46.365Z,40.96
2023-05-05T10:53:46.361Z,40.17
2023-05-05T10:54:46.347Z,39.25
2023-05-05T10:55:46.338Z,39.62
2023-05-05T10:56:46.342Z,38.12
2023-05-05T10:57:46.330Z,39.03
2023-05-05T10:58:59.133Z,39.42
2023-05-05T10:59:48.303Z,40.13
2023-05-05T11:00:46.304Z,40.66
2023-05-05T11:01:47.267Z,42.68
2023-05-05T11:02:46.292Z,42.16
2023-05-05T11:03:46.311Z,41.89
2023-05-05T11:04:46.251Z,41.91
2023-05-05T11:05:46.253Z,42.35
2023-05-05T11:06:46.208Z,44.11
2023-05-05T11:07:46.233Z,45.28
2023-05-05T11:08:46.192Z,45.34
2023-05-05T11:09:46.179Z,44.67
2023-05-05T11:10:46.186Z,43.97
2023-05-05T11:11:46.189Z,44.27
2023-05-05T11:12:46.184Z,46.25
2023-05-05T11:13:46.152Z,44.24
2023-05-05T11:14:46.147Z,42.03
2023-05-05T11:15:46.125Z,42.38
2023-05-05T11:16:46.144Z,41.36
2023-05-05T11:17:46.134Z,40.66
2023-05-05T11:18:46.087Z,40.82
2023-05-05T11:19:46.100Z,40.21
2023-05-05T11:20:46.068Z,39.92
2023-05-05T11:21:46.049Z,39.09
2023-05-05T11:22:47.056Z,40.39
2023-05-05T11:23:46.061Z,40.17
2023-05-05T11:24:46.047Z,39.26
2023-05-05T11:25:46.037Z,39.18
2023-05-05T11:26:46.008Z,40.13
2023-05-05T11:27:46.001Z,41.77
2023-05-05T11:28:46.002Z,41.55
2023-05-05T11:29:46.026Z,40.33
2023-05-05T11:30:46.017Z,40.11
2023-05-05T11:31:45.972Z,40.72
2023-05-05T11:32:45.998Z,40.25
2023-05-05T11:33:45.972Z,42.05
2023-05-05T11:34:45.927Z,42.97
2023-05-05T11:35:45.945Z,45.12
2023-05-05T11:36:45.928Z,46.83
2023-05-05T11:37:45.919Z,47.60
2023-05-05T11:38:45.940Z,49.29
2023-05-05T11:39:46.900Z,47.40
2023-05-05T11:40:46.881Z,49.33
2023-05-05T11:41:45.879Z,50.75
2023-05-05T11:42:45.870Z,50.13
2023-05-05T11:43:45.845Z,49.63
2023-05-05T11:44:45.832Z,49.33
2023-05-05T11:45:45.823Z,49.63
2023-05-05T11:46:45.853Z,50.48
2023-05-05T11:47:46.749Z,50.78
2023-05-05T11:48:45.784Z,52.22
2023-05-05T11:49:45.776Z,52.07
2023-05-05T11:50:45.757Z,53.66
2023-05-05T11:51:45.739Z,54.06
2023-05-05T11:52:45.724Z,53.77
2023-05-05T11:53:45.733Z,53.66
2023-05-05T11:54:45.719Z,54.86
2023-05-05T11:55:45.744Z,54.66
2023-05-05T11:56:45.686Z,54.09
2023-05-05T11:57:45.691Z,56.41
2023-05-05T11:58:46.723Z,54.54
2023-05-05T11:59:46.756Z,55.07
2023-05-05T12:00:45.685Z,56.87
2023-05-05T12:01:45.640Z,56.77
2023-05-05T12:02:45.699Z,56.59
2023-05-05T12:03:46.209Z,56.16
2023-05-05T12:04:45.690Z,55.66
2023-05-05T12:05:45.599Z,55.87
2023-05-05T12:06:45.645Z,56.99
2023-05-05T12:07:45.606Z,58.02
2023-05-05T12:08:45.603Z,57.32
2023-05-05T12:09:45.562Z,58.32
2023-05-05T12:10:45.823Z,58.32
2023-05-05T12:11:45.560Z,59.65
2023-05-05T12:12:45.549Z,60.41
2023-05-05T12:13:45.538Z,61.91
2023-05-05T12:14:45.520Z,63.21
2023-05-05T12:15:45.518Z,65.45
2023-05-05T12:16:45.624Z,67.18
2023-05-05T12:17:45.549Z,67.38
2023-05-05T12:18:45.476Z,67.72
2023-05-05T12:19:45.453Z,69.42
2023-05-05T12:20:45.478Z,72.00
2023-05-05T12:21:45.459Z,74.58
2023-05-05T12:22:45.414Z,76.93
2023-05-05T12:23:45.424Z,78.58
2023-05-05T12:24:45.434Z,80.26
2023-05-05T12:25:45.406Z,82.07
2023-05-05T12:26:45.463Z,83.83
2023-05-05T12:27:45.411Z,86.24
2023-05-05T12:28:45.371Z,85.98
2023-05-05T12:29:45.343Z,87.13
2023-05-05T12:30:45.371Z,87.88
2023-05-05T12:31:45.354Z,87.21
2023-05-05T12:32:45.386Z,89.28
2023-05-05T12:33:45.299Z,89.48
2023-05-05T12:34:45.321Z,89.88
2023-05-05T12:35:45.302Z,91.74
2023-05-05T12:36:45.314Z,91.54
2023-05-05T12:37:45.286Z,94.42
2023-05-05T12:38:45.271Z,96.03
2023-05-05T12:39:45.241Z,98.16
2023-05-05T12:40:45.302Z,98.71
2023-05-05T12:41:45.229Z,99.99
2023-05-05T12:42:46.395Z,99.99
2023-05-05T12:43:46.193Z,99.99
2023-05-05T12:44:45.204Z,99.99
2023-05-05T12:45:45.197Z,99.99
2023-05-05T12:46:45.177Z,99.99
2023-05-05T12:47:45.223Z,99.99
2023-05-05T12:48:47.940Z,99.99
2023-05-05T12:49:46.136Z,99.99
2023-05-05T12:50:45.120Z,99.99
2023-05-05T12:51:45.115Z,99.99
2023-05-05T12:52:45.149Z,99.99